createdAt,value
2017-06-05T00:00:36.677Z,17.1
2017-06-05T00:03:00.553Z,17.23
2017-06-05T00:05:10.872Z,17.04
2017-06-05T00:07:21.160Z,16.95
2017-06-05T00:09:14.510Z,16.91
2017-06-05T00:13:14.478Z,16.69
2017-06-05T00:15:40.286Z,16.68
2017-06-05T00:19:40.174Z,16.89
2017-06-05T00:22:05.957Z,16.94
2017-06-05T00:24:45.581Z,16.91
2017-06-05T00:27:11.409Z,16.83
2017-06-05T00:29:35.185Z,16.79
2017-06-05T00:33:36.168Z,16.69
2017-06-05T00:37:51.457Z,16.94
2017-06-05T00:40:00.461Z,16.79
2017-06-05T00:44:00.362Z,16.73
2017-06-05T00:46:40.758Z,16.69
2017-06-05T00:50:49.636Z,16.64
2017-06-05T00:54:49.014Z,16.62
2017-06-05T00:56:59.324Z,16.61
2017-06-05T00:59:06.256Z,16.66
2017-06-05T01:01:29.214Z,16.74
2017-06-05T01:03:54.009Z,16.84
2017-06-05T01:07:53.870Z,17.04
2017-06-05T01:11:36.915Z,17.12
2017-06-05T01:15:36.854Z,17.09
2017-06-05T01:18:00.684Z,16.91
2017-06-05T01:20:31.319Z,16.79
2017-06-05T01:24:39.167Z,16.58
2017-06-05T01:28:39.023Z,16.43
2017-06-05T01:31:10.014Z,16.59
2017-06-05T01:32:47.312Z,16.72
2017-06-05T01:35:12.091Z,16.86
2017-06-05T01:37:43.241Z,16.84
2017-06-05T01:40:21.662Z,16.94
2017-06-05T01:44:21.540Z,17.01
2017-06-05T01:48:13.679Z,16.95
2017-06-05T01:50:15.678Z,16.91
2017-06-05T01:54:06.613Z,16.92
2017-06-05T01:58:08.630Z,16.83
2017-06-05T02:02:00.084Z,16.92
2017-06-05T02:04:23.914Z,16.76
2017-06-05T02:08:15.373Z,16.59
2017-06-05T02:10:40.165Z,16.74
2017-06-05T02:14:39.989Z,16.95
2017-06-05T02:17:05.797Z,17.02
2017-06-05T02:21:05.660Z,16.87
2017-06-05T02:23:31.453Z,16.82
2017-06-05T02:26:12.120Z,17.04
2017-06-05T02:28:44.598Z,16.98
2017-06-05T02:31:10.424Z,17.1
2017-06-05T02:35:10.316Z,17.09
2017-06-05T02:37:42.729Z,17.09
2017-06-05T02:41:34.204Z,16.86
2017-06-05T02:44:13.606Z,16.72
2017-06-05T02:48:13.481Z,16.79
2017-06-05T02:52:04.928Z,16.84
2017-06-05T02:54:45.334Z,17.05
2017-06-05T03:00:21.354Z,17.17
2017-06-05T03:02:44.272Z,17.1
2017-06-05T03:08:21.302Z,17.09
2017-06-05T03:10:47.109Z,17.1
2017-06-05T03:16:23.093Z,17.09
2017-06-05T03:18:48.919Z,16.8
2017-06-05T03:22:51.647Z,16.86
2017-06-05T03:25:16.411Z,16.83
2017-06-05T03:29:16.271Z,16.73
2017-06-05T03:33:16.125Z,16.98
2017-06-05T03:37:15.957Z,17.05
2017-06-05T03:41:15.814Z,17.1
2017-06-05T03:43:26.140Z,17.1
2017-06-05T03:47:26.029Z,16.72
2017-06-05T03:49:49.798Z,16.99
2017-06-05T03:53:49.166Z,17.23
2017-06-05T03:57:48.525Z,17.35
2017-06-05T04:00:19.992Z,17.31
2017-06-05T04:02:44.789Z,17.49
2017-06-05T04:05:10.539Z,17.46
2017-06-05T04:09:24.806Z,17.46
2017-06-05T04:11:49.585Z,17.42
2017-06-05T04:15:56.499Z,17.42
2017-06-05T04:19:48.004Z,17.87
2017-06-05T04:23:47.914Z,17.84
2017-06-05T04:26:13.765Z,17.75
2017-06-05T04:28:44.294Z,17.9
2017-06-05T04:30:54.615Z,17.9
2017-06-05T04:33:18.532Z,18.09
2017-06-05T04:35:57.053Z,18.27
2017-06-05T04:38:04.030Z,18.34
2017-06-05T04:40:18.489Z,18.34
2017-06-05T04:44:21.307Z,18.36
2017-06-05T04:48:21.245Z,18.21
2017-06-05T04:52:21.203Z,18.31
2017-06-05T04:54:52.636Z,18.52
2017-06-05T04:57:18.429Z,18.42
2017-06-05T04:59:34.837Z,18.49
2017-06-05T05:02:14.584Z,18.45
2017-06-05T05:06:14.567Z,18.49
2017-06-05T05:10:06.089Z,18.66
2017-06-05T05:12:09.982Z,18.68
2017-06-05T05:14:33.933Z,18.57
2017-06-05T05:18:33.381Z,18.68
2017-06-05T05:20:57.229Z,18.76
2017-06-05T05:23:23.059Z,18.79
2017-06-05T05:25:46.932Z,18.58
2017-06-05T05:27:53.911Z,18.6
2017-06-05T05:30:09.394Z,18.55
2017-06-05T05:32:33.268Z,18.66
2017-06-05T05:34:40.352Z,18.68
2017-06-05T05:37:05.151Z,18.67
2017-06-05T05:39:30.050Z,18.6
2017-06-05T05:41:54.954Z,18.53
2017-06-05T05:44:18.831Z,18.68
2017-06-05T05:46:43.736Z,18.83
2017-06-05T05:49:07.609Z,19.05
2017-06-05T05:51:17.490Z,19.17
2017-06-05T05:53:33.961Z,19.17
2017-06-05T05:55:57.837Z,19.15
2017-06-05T05:58:22.782Z,19.47
2017-06-05T06:00:46.722Z,19.77
2017-06-05T06:03:10.699Z,20
2017-06-05T06:05:36.648Z,19.97
2017-06-05T06:08:00.606Z,19.66
2017-06-05T06:10:24.581Z,19.6
2017-06-05T06:12:48.561Z,19.66
2017-06-05T06:15:04.133Z,19.74
2017-06-05T06:17:28.125Z,19.75
2017-06-05T06:19:43.710Z,19.97
2017-06-05T06:22:07.621Z,20.14
2017-06-05T06:24:31.561Z,20.15
2017-06-05T06:27:02.302Z,19.96
2017-06-05T06:29:27.303Z,19.81
2017-06-05T06:31:51.280Z,19.82
2017-06-05T06:34:16.286Z,19.72
2017-06-05T06:36:40.271Z,19.7
2017-06-05T06:39:04.249Z,19.94
2017-06-05T06:41:19.831Z,20
2017-06-05T06:43:44.833Z,20.04
2017-06-05T06:46:09.840Z,20.34
2017-06-05T06:48:19.710Z,20.7
2017-06-05T06:50:35.371Z,20.83
2017-06-05T06:52:59.350Z,20.7
2017-06-05T06:55:23.331Z,20.34
2017-06-05T06:57:47.310Z,20.67
2017-06-05T07:00:11.284Z,20.88
2017-06-05T07:02:12.743Z,21.05
2017-06-05T07:04:36.820Z,21.19
2017-06-05T07:07:01.927Z,21.11
2017-06-05T07:09:10.136Z,21.74
2017-06-05T07:11:35.241Z,22.21
2017-06-05T07:13:52.874Z,22.08
2017-06-05T07:16:16.953Z,22.22
2017-06-05T07:18:43.087Z,22.55
2017-06-05T07:21:07.268Z,21.99
2017-06-05T07:23:14.457Z,22.1
2017-06-05T07:25:30.135Z,21.92
2017-06-05T07:27:54.222Z,21.99
2017-06-05T07:30:18.304Z,21.63
2017-06-05T07:32:20.169Z,21.37
2017-06-05T07:34:44.236Z,20.77
2017-06-05T07:37:08.326Z,20.88
2017-06-05T07:39:32.408Z,20.86
2017-06-05T07:41:56.490Z,20.95
2017-06-05T07:44:20.575Z,21.19
2017-06-05T07:46:44.659Z,21.14
2017-06-05T07:49:00.238Z,21.44
2017-06-05T07:51:15.820Z,21.2
2017-06-05T07:53:17.710Z,21.41
2017-06-05T07:55:41.763Z,20.88
2017-06-05T07:57:57.448Z,20.88
2017-06-05T08:00:21.528Z,21.04
2017-06-05T08:02:45.611Z,21.22
2017-06-05T08:05:09.695Z,21.15
2017-06-05T08:07:33.715Z,21.4
2017-06-05T08:09:57.755Z,20.73
2017-06-05T08:12:21.840Z,21.05
2017-06-05T08:14:45.918Z,20.98
2017-06-05T08:17:10.003Z,20.88
2017-06-05T08:19:34.083Z,21.4
2017-06-05T08:21:58.164Z,21.6
2017-06-05T08:24:13.849Z,21.69
2017-06-05T08:26:37.929Z,21.75
2017-06-05T08:29:02.022Z,22
2017-06-05T08:31:26.096Z,21.45
2017-06-05T08:33:50.131Z,21.7
2017-06-05T08:36:05.861Z,21.58
2017-06-05T08:38:29.941Z,21.6
2017-06-05T08:40:54.023Z,20.71
2017-06-05T08:43:09.709Z,20.95
2017-06-05T08:45:33.792Z,21.35
2017-06-05T08:47:57.873Z,21.6
2017-06-05T08:50:21.955Z,21.47
2017-06-05T08:52:37.644Z,21.33
2017-06-05T08:55:01.824Z,21.96
2017-06-05T08:57:25.903Z,21.94
2017-06-05T08:59:41.593Z,22.38
2017-06-05T09:01:48.879Z,22.23
2017-06-05T09:04:13.076Z,22.96
2017-06-05T09:06:37.143Z,21.97
2017-06-05T09:09:01.330Z,22.31
2017-06-05T09:11:25.515Z,22.53
2017-06-05T09:13:41.199Z,22.38
2017-06-05T09:16:05.383Z,21.68
2017-06-05T09:18:29.566Z,21.45
2017-06-05T09:20:53.751Z,22.4
2017-06-05T09:23:04.191Z,21.94
2017-06-05T09:25:28.505Z,21.54
2017-06-05T09:27:52.684Z,22.07
2017-06-05T09:30:16.871Z,22.53
2017-06-05T09:32:42.082Z,23.17
2017-06-05T09:35:06.266Z,24.31
2017-06-05T09:37:30.552Z,25.41
2017-06-05T09:39:54.755Z,24.78
2017-06-05T09:42:05.228Z,23.79
2017-06-05T09:44:31.533Z,23.33
2017-06-05T09:46:55.767Z,23.64
2017-06-05T09:49:20.539Z,24.01
2017-06-05T09:51:43.043Z,24.74
2017-06-05T09:54:05.557Z,24.56
2017-06-05T09:56:31.879Z,24.93
2017-06-05T09:59:03.048Z,25.3
2017-06-05T10:01:43.051Z,24.63
2017-06-05T10:04:09.399Z,23.58
2017-06-05T10:06:34.766Z,23.33
2017-06-05T10:08:50.649Z,23.48
2017-06-05T10:11:14.988Z,24.16
2017-06-05T10:13:41.306Z,22.93
2017-06-05T10:16:05.633Z,24.14
2017-06-05T10:18:29.987Z,24.04
2017-06-05T10:20:54.323Z,23.23
2017-06-05T10:23:20.660Z,23.76
2017-06-05T10:25:45.018Z,23.33
2017-06-05T10:28:09.361Z,23.33
2017-06-05T10:30:33.707Z,24.03
2017-06-05T10:32:49.601Z,24.53
2017-06-05T10:35:05.471Z,24.71
2017-06-05T10:37:29.838Z,25.54
2017-06-05T10:39:40.356Z,25.06
2017-06-05T10:42:04.757Z,24.96
2017-06-05T10:44:29.131Z,25.46
2017-06-05T10:46:53.449Z,24.62
2017-06-05T10:49:17.815Z,24.22
2017-06-05T10:51:33.670Z,24.41
2017-06-05T10:53:57.984Z,24.21
2017-06-05T10:56:13.859Z,23.79
2017-06-05T10:58:38.176Z,23.2
2017-06-05T11:00:14.496Z,23.17
2017-06-05T11:02:16.409Z,23.37
2017-06-05T11:04:40.728Z,22.12
2017-06-05T11:07:04.983Z,23.18
2017-06-05T11:09:29.269Z,24.18
2017-06-05T11:11:53.540Z,23.51
2017-06-05T11:14:17.808Z,23.01
2017-06-05T11:16:42.089Z,22.91
2017-06-05T11:18:57.926Z,23.17
2017-06-05T11:21:22.244Z,22.63
2017-06-05T11:23:38.078Z,23.1
2017-06-05T11:25:53.874Z,23.76
2017-06-05T11:28:18.141Z,24.43
2017-06-05T11:30:33.946Z,25.18
2017-06-05T11:32:58.201Z,24.47
2017-06-05T11:35:22.564Z,25
2017-06-05T11:37:46.864Z,25.44
2017-06-05T11:40:11.224Z,25.24
2017-06-05T11:42:27.145Z,26.19
2017-06-05T11:44:51.516Z,26.07
2017-06-05T11:47:07.483Z,27
2017-06-05T11:49:31.922Z,26.08
2017-06-05T11:51:08.249Z,25.73
2017-06-05T11:53:18.792Z,25.51
2017-06-05T11:55:43.306Z,24.92
2017-06-05T11:58:07.736Z,25.51
2017-06-05T12:00:32.217Z,24.09
2017-06-05T12:02:56.628Z,23.62
2017-06-05T12:05:12.598Z,23.67
2017-06-05T12:07:37.036Z,24.79
2017-06-05T12:09:39.017Z,24.28
2017-06-05T12:12:03.460Z,23.81
2017-06-05T12:14:27.864Z,24.19
2017-06-05T12:16:43.820Z,24.79
2017-06-05T12:19:08.222Z,24.14
2017-06-05T12:21:24.168Z,24.21
2017-06-05T12:23:26.278Z,24.34
2017-06-05T12:25:50.703Z,24.56
2017-06-05T12:27:52.625Z,23.69
2017-06-05T12:30:17.074Z,24.38
2017-06-05T12:32:24.613Z,24.51
2017-06-05T12:34:49.041Z,23.54
2017-06-05T12:37:13.456Z,24.89
2017-06-05T12:39:37.864Z,24.69
2017-06-05T12:41:39.841Z,25.93
2017-06-05T12:43:56.820Z,24.78
2017-06-05T12:45:33.129Z,24.63
2017-06-05T12:47:57.615Z,24.68
2017-06-05T12:49:59.576Z,25.96
2017-06-05T12:52:15.617Z,26.06
2017-06-05T12:54:31.631Z,25.3
2017-06-05T12:56:47.624Z,25.78
2017-06-05T12:59:12.045Z,26.55
2017-06-05T13:01:37.514Z,26.49
2017-06-05T13:04:01.949Z,26.46
2017-06-05T13:06:17.979Z,26.89
2017-06-05T13:08:42.494Z,25.26
2017-06-05T13:10:58.561Z,24.79
2017-06-05T13:13:00.597Z,26.08
2017-06-05T13:15:25.096Z,27.07
2017-06-05T13:17:35.615Z,27.18
2017-06-05T13:20:00.144Z,26.81
2017-06-05T13:22:16.206Z,27.1
2017-06-05T13:24:40.732Z,26.97
2017-06-05T13:27:05.254Z,25.95
2017-06-05T13:29:21.292Z,25.81
2017-06-05T13:31:45.782Z,26.08
2017-06-05T13:34:10.275Z,26.66
2017-06-05T13:36:34.754Z,25.95
2017-06-05T13:38:59.201Z,24.32
2017-06-05T13:41:23.668Z,25.03
2017-06-05T13:43:48.103Z,25.16
2017-06-05T13:46:04.100Z,25.4
2017-06-05T13:48:28.480Z,25.58
2017-06-05T13:50:52.925Z,26.07
2017-06-05T13:53:17.408Z,26.46
2017-06-05T13:55:41.905Z,26.56
2017-06-05T13:58:06.408Z,26.19
2017-06-05T14:00:30.943Z,26.08
2017-06-05T14:02:46.954Z,26.19
2017-06-05T14:05:12.468Z,26.36
2017-06-05T14:07:28.509Z,26.51
2017-06-05T14:09:53.015Z,26.67
2017-06-05T14:12:17.546Z,26.71
2017-06-05T14:14:33.614Z,26.81
2017-06-05T14:16:58.122Z,26.86
2017-06-05T14:19:22.631Z,26.67
2017-06-05T14:21:24.710Z,26.36
2017-06-05T14:23:49.207Z,26.03
2017-06-05T14:26:13.694Z,26.81
2017-06-05T14:28:21.265Z,26.81
2017-06-05T14:30:45.780Z,26.34
2017-06-05T14:33:10.273Z,26.82
2017-06-05T14:35:34.779Z,26.86
2017-06-05T14:37:59.272Z,24.55
2017-06-05T14:40:15.298Z,24.59
2017-06-05T14:42:31.297Z,25.22
2017-06-05T14:44:55.752Z,25.24
2017-06-05T14:47:20.194Z,24.86
2017-06-05T14:49:44.623Z,24.55
2017-06-05T14:52:09.004Z,24.71
2017-06-05T14:54:33.417Z,25.18
2017-06-05T14:56:57.828Z,24.99
2017-06-05T14:59:22.236Z,25.8
2017-06-05T15:01:46.605Z,25.61
2017-06-05T15:04:11.031Z,25.09
2017-06-05T15:06:35.439Z,24.34
2017-06-05T15:08:59.841Z,25.39
2017-06-05T15:11:15.806Z,25.62
2017-06-05T15:13:40.208Z,25.95
2017-06-05T15:16:04.671Z,25.73
2017-06-05T15:18:29.167Z,25.76
2017-06-05T15:20:53.658Z,25.16
2017-06-05T15:23:18.152Z,25.01
2017-06-05T15:25:42.637Z,25.39
2017-06-05T15:28:07.135Z,24.88
2017-06-05T15:30:31.632Z,25.41
2017-06-05T15:32:56.112Z,25.14
2017-06-05T15:35:12.105Z,25.01
2017-06-05T15:37:36.597Z,24.55
2017-06-05T15:40:01.082Z,24.68
2017-06-05T15:42:25.577Z,24.24
2017-06-05T15:44:49.971Z,24.71
2017-06-05T15:47:14.460Z,24.66
2017-06-05T15:49:38.863Z,24.93
2017-06-05T15:52:03.237Z,24.58
2017-06-05T15:54:27.733Z,25.01
2017-06-05T15:56:43.721Z,24.99
2017-06-05T15:59:08.113Z,24.99
2017-06-05T16:01:18.622Z,25.52
2017-06-05T16:03:29.121Z,25.16
2017-06-05T16:05:53.536Z,25.3
2017-06-05T16:08:18.020Z,24.94
2017-06-05T16:10:42.518Z,25.18
2017-06-05T16:13:07.009Z,24.97
2017-06-05T16:15:31.393Z,25.21
2017-06-05T16:17:55.886Z,25.63
2017-06-05T16:19:57.986Z,25.43
2017-06-05T16:22:22.343Z,25.24
2017-06-05T16:24:46.839Z,25.04
2017-06-05T16:27:11.325Z,25.51
2017-06-05T16:29:35.817Z,25.63
2017-06-05T16:31:29.311Z,25.41
2017-06-05T16:33:31.240Z,25.59
2017-06-05T16:35:55.737Z,25.43
2017-06-05T16:38:20.224Z,25.71
2017-06-05T16:40:44.717Z,25.67
2017-06-05T16:43:09.208Z,25.62
2017-06-05T16:45:25.109Z,25.24
2017-06-05T16:47:49.512Z,24.92
2017-06-05T16:50:13.985Z,25.07
2017-06-05T16:52:38.471Z,25.46
2017-06-05T16:55:02.860Z,25.4
2017-06-05T16:57:27.248Z,25.4
2017-06-05T16:59:51.637Z,25.58
2017-06-05T17:02:16.029Z,25.39
2017-06-05T17:04:32.019Z,25.44
2017-06-05T17:06:56.494Z,25.3
2017-06-05T17:09:20.830Z,25.29
2017-06-05T17:11:46.006Z,25.26
2017-06-05T17:14:09.574Z,25.19
2017-06-05T17:16:33.987Z,25.4
2017-06-05T17:18:58.367Z,25.36
2017-06-05T17:21:22.744Z,25.3
2017-06-05T17:23:47.236Z,24.94
2017-06-05T17:26:11.623Z,25.52
2017-06-05T17:28:36.013Z,25.29
2017-06-05T17:31:00.405Z,25.09
2017-06-05T17:33:24.793Z,25.21
2017-06-05T17:35:49.181Z,25.48
2017-06-05T17:37:59.662Z,25.33
2017-06-05T17:40:24.034Z,25.15
2017-06-05T17:42:48.424Z,24.24
2017-06-05T17:45:12.814Z,24.34
2017-06-05T17:47:37.202Z,24.48
2017-06-05T17:50:01.593Z,24.46
2017-06-05T17:52:25.982Z,24.14
2017-06-05T17:54:50.372Z,23.92
2017-06-05T17:57:14.758Z,24.04
2017-06-05T17:59:39.146Z,24.4
2017-06-05T18:02:03.538Z,24.63
2017-06-05T18:04:27.925Z,24.58
2017-06-05T18:06:29.876Z,24.18
2017-06-05T18:08:54.280Z,24.32
2017-06-05T18:11:18.668Z,24.44
2017-06-05T18:13:34.558Z,24.18
2017-06-05T18:15:58.948Z,24.01
2017-06-05T18:18:14.839Z,23.91
2017-06-05T18:20:39.122Z,23.77
2017-06-05T18:23:03.411Z,23.52
2017-06-05T18:25:27.803Z,23.81
2017-06-05T18:27:38.270Z,23.56
2017-06-05T18:29:48.711Z,23.73
2017-06-05T18:32:04.623Z,23.29
2017-06-05T18:34:20.404Z,23.45
2017-06-05T18:36:44.687Z,23.81
2017-06-05T18:39:08.976Z,23.47
2017-06-05T18:41:33.264Z,23.23
2017-06-05T18:43:49.052Z,23.32
2017-06-05T18:46:04.842Z,23.13
2017-06-05T18:48:29.121Z,23.21
2017-06-05T18:50:53.410Z,23.32
2017-06-05T18:53:17.695Z,23.26
2017-06-05T18:55:41.983Z,23.2
2017-06-05T18:58:06.270Z,23.04
2017-06-05T19:00:22.062Z,23.16
2017-06-05T19:02:46.344Z,23.23
2017-06-05T19:05:02.135Z,23.11
2017-06-05T19:07:26.418Z,23.21
2017-06-05T19:09:50.711Z,23.26
2017-06-05T19:12:14.993Z,22.88
2017-06-05T19:14:39.277Z,22.89
2017-06-05T19:17:03.462Z,22.65
2017-06-05T19:19:27.654Z,22.74
2017-06-05T19:21:38.097Z,22.67
2017-06-05T19:24:02.396Z,22.68
2017-06-05T19:26:18.186Z,22.56
2017-06-05T19:28:33.971Z,22.4
2017-06-05T19:30:58.158Z,22.49
2017-06-05T19:33:22.341Z,22.52
2017-06-05T19:35:46.524Z,22.46
2017-06-05T19:38:10.717Z,22.07
2017-06-05T19:40:34.894Z,22.31
2017-06-05T19:42:59.075Z,22.4
2017-06-05T19:45:23.258Z,22.15
2017-06-05T19:47:39.050Z,22.21
2017-06-05T19:50:03.234Z,22.22
2017-06-05T19:52:27.420Z,21.97
2017-06-05T19:54:51.599Z,21.97
2017-06-05T19:57:15.787Z,22.15
2017-06-05T19:59:39.970Z,21.96
2017-06-05T20:02:04.154Z,21.78
2017-06-05T20:04:28.342Z,21.69
2017-06-05T20:06:52.527Z,21.6
2017-06-05T20:09:16.711Z,21.38
2017-06-05T20:11:40.893Z,21.28
2017-06-05T20:13:42.781Z,21.35
2017-06-05T20:16:06.939Z,21.17
2017-06-05T20:18:22.624Z,21.17
2017-06-05T20:20:24.511Z,21.11
2017-06-05T20:22:48.667Z,21.03
2017-06-05T20:25:12.748Z,20.86
2017-06-05T20:27:36.829Z,20.92
2017-06-05T20:29:52.515Z,21.05
2017-06-05T20:32:16.599Z,20.96
2017-06-05T20:34:32.283Z,20.96
2017-06-05T20:36:56.265Z,20.98
2017-06-05T20:39:20.345Z,20.95
2017-06-05T20:41:45.448Z,20.68
2017-06-05T20:44:09.531Z,20.64
2017-06-05T20:46:33.612Z,20.18
2017-06-05T20:48:57.699Z,20.52
2017-06-05T20:51:21.779Z,20.5
2017-06-05T20:53:32.203Z,20.7
2017-06-05T20:55:56.224Z,20.59
2017-06-05T20:58:11.803Z,20.34
2017-06-05T21:00:35.881Z,20.11
2017-06-05T21:02:59.968Z,20.32
2017-06-05T21:05:24.045Z,20.37
2017-06-05T21:07:39.632Z,20.5
2017-06-05T21:10:03.713Z,20.48
2017-06-05T21:12:05.602Z,20.48
2017-06-05T21:14:29.758Z,20
2017-06-05T21:16:45.439Z,19.72
2017-06-05T21:19:01.027Z,20.14
2017-06-05T21:21:16.610Z,19.79
2017-06-05T21:23:40.688Z,19.81
2017-06-05T21:25:56.272Z,19.96
2017-06-05T21:28:20.251Z,20.03
2017-06-05T21:30:44.231Z,19.94
2017-06-05T21:33:08.314Z,19.94
2017-06-05T21:35:32.395Z,19.84
2017-06-05T21:37:56.375Z,19.78
2017-06-05T21:40:20.352Z,19.7
2017-06-05T21:42:13.274Z,19.7
2017-06-05T21:44:14.598Z,19.57
2017-06-05T21:46:30.236Z,19.64
2017-06-05T21:48:45.818Z,19.52
2017-06-05T21:51:09.800Z,19.77
2017-06-05T21:53:33.773Z,19.72
2017-06-05T21:55:57.756Z,19.62
2017-06-05T21:58:21.736Z,19.57
2017-06-05T22:00:45.715Z,19.7
2017-06-05T22:03:09.694Z,19.81
2017-06-05T22:05:25.278Z,19.75
2017-06-05T22:07:49.153Z,19.78
2017-06-05T22:10:13.135Z,19.6
2017-06-05T22:12:37.114Z,19.59
2017-06-05T22:15:01.090Z,19.27
2017-06-05T22:17:25.076Z,19.16
2017-06-05T22:19:49.051Z,19.34
2017-06-05T22:22:13.038Z,19.6
2017-06-05T22:24:37.009Z,19.6
2017-06-05T22:26:52.592Z,19.39
2017-06-05T22:29:16.575Z,19.39
2017-06-05T22:31:40.553Z,19.12
2017-06-05T22:34:04.534Z,19.05
2017-06-05T22:36:28.520Z,19.19
2017-06-05T22:38:52.492Z,19.35
2017-06-05T22:41:16.470Z,18.98
2017-06-05T22:43:31.951Z,18.96
2017-06-05T22:45:55.929Z,19.11
2017-06-05T22:48:19.806Z,19.29
2017-06-05T22:50:35.288Z,19.44
2017-06-05T22:52:59.267Z,19.41
2017-06-05T22:55:23.247Z,19.47
2017-06-05T22:57:47.224Z,19.52
2017-06-05T23:00:11.203Z,19.67
2017-06-05T23:02:35.175Z,19.55
2017-06-05T23:04:50.663Z,19.45
2017-06-05T23:07:06.145Z,19.52
2017-06-05T23:09:30.126Z,19.38
2017-06-05T23:11:54.107Z,19.55
2017-06-05T23:14:09.585Z,19.63
2017-06-05T23:16:33.563Z,19.45
2017-06-05T23:18:49.043Z,19.53
2017-06-05T23:21:13.036Z,19.49
2017-06-05T23:23:37.001Z,19.55
2017-06-05T23:26:00.880Z,19.6
2017-06-05T23:28:10.750Z,19.6
2017-06-05T23:30:20.606Z,19.62
2017-06-05T23:32:44.550Z,19.64
2017-06-05T23:35:08.428Z,19.49
2017-06-05T23:37:15.545Z,19.47
2017-06-05T23:39:39.493Z,19.45
2017-06-05T23:41:49.342Z,19.56
2017-06-05T23:43:59.191Z,19.59
2017-06-05T23:46:23.167Z,19.48
2017-06-05T23:48:47.048Z,19.59
2017-06-05T23:51:02.526Z,19.44
2017-06-05T23:53:26.403Z,19.16
2017-06-05T23:55:50.279Z,19.27
2017-06-05T23:58:05.759Z,19.24
